sensor_id;sensor_type;location;lat;lon;timestamp;P1;durP1;ratioP1;P2;durP2;ratioP2
28724;SDS011;43472;48.980;9.646;2023-10-13T00:04:48;12.77;;;7.22;;
28724;SDS011;43472;48.980;9.646;2023-10-13T00:09:51;14.32;;;7.53;;
28724;SDS011;43472;48.980;9.646;2023-10-13T00:14:53;18.35;;;7.55;;
28724;SDS011;43472;48.980;9.646;2023-10-13T00:19:55;9.45;;;5.85;;
28724;SDS011;43472;48.980;9.646;2023-10-13T00:25:01;11.38;;;6.45;;
28724;SDS011;43472;48.980;9.646;2023-10-13T00:30:05;11.68;;;6.55;;
28724;SDS011;43472;48.980;9.646;2023-10-13T00:35:28;13.68;;;6.32;;
28724;SDS011;43472;48.980;9.646;2023-10-13T00:40:37;16.10;;;7.45;;
28724;SDS011;43472;48.980;9.646;2023-10-13T00:45:39;11.82;;;6.10;;
28724;SDS011;43472;48.980;9.646;2023-10-13T00:50:42;15.18;;;7.63;;
28724;SDS011;43472;48.980;9.646;2023-10-13T00:55:46;15.75;;;7.45;;
28724;SDS011;43472;48.980;9.646;2023-10-13T01:00:49;10.80;;;6.03;;
28724;SDS011;43472;48.980;9.646;2023-10-13T01:05:57;16.60;;;5.72;;
28724;SDS011;43472;48.980;9.646;2023-10-13T01:11:01;18.63;;;7.35;;
28724;SDS011;43472;48.980;9.646;2023-10-13T01:16:03;12.80;;;6.47;;
28724;SDS011;43472;48.980;9.646;2023-10-13T01:21:06;14.20;;;5.65;;
28724;SDS011;43472;48.980;9.646;2023-10-13T01:26:11;12.90;;;5.75;;
28724;SDS011;43472;48.980;9.646;2023-10-13T01:31:14;12.85;;;6.53;;
28724;SDS011;43472;48.980;9.646;2023-10-13T01:36:36;15.10;;;6.40;;
28724;SDS011;43472;48.980;9.646;2023-10-13T01:41:41;15.40;;;6.50;;
28724;SDS011;43472;48.980;9.646;2023-10-13T01:46:44;16.02;;;6.05;;
28724;SDS011;43472;48.980;9.646;2023-10-13T01:51:49;13.05;;;6.63;;
28724;SDS011;43472;48.980;9.646;2023-10-13T01:56:51;18.42;;;6.75;;
28724;SDS011;43472;48.980;9.646;2023-10-13T02:01:55;12.10;;;6.53;;
28724;SDS011;43472;48.980;9.646;2023-10-13T02:07:01;13.65;;;6.65;;
28724;SDS011;43472;48.980;9.646;2023-10-13T02:12:04;11.50;;;5.80;;
28724;SDS011;43472;48.980;9.646;2023-10-13T02:17:06;11.90;;;6.47;;
28724;SDS011;43472;48.980;9.646;2023-10-13T02:22:14;10.02;;;6.20;;
28724;SDS011;43472;48.980;9.646;2023-10-13T02:27:30;13.77;;;7.00;;
28724;SDS011;43472;48.980;9.646;2023-10-13T02:32:44;17.58;;;6.90;;
28724;SDS011;43472;48.980;9.646;2023-10-13T02:37:46;21.17;;;6.97;;
28724;SDS011;43472;48.980;9.646;2023-10-13T02:42:56;12.83;;;6.40;;
28724;SDS011;43472;48.980;9.646;2023-10-13T02:47:58;8.90;;;5.70;;
28724;SDS011;43472;48.980;9.646;2023-10-13T02:53:19;19.63;;;6.10;;
28724;SDS011;43472;48.980;9.646;2023-10-13T02:58:20;16.90;;;6.38;;
28724;SDS011;43472;48.980;9.646;2023-10-13T03:03:22;13.15;;;7.38;;
28724;SDS011;43472;48.980;9.646;2023-10-13T03:08:24;11.82;;;6.35;;
28724;SDS011;43472;48.980;9.646;2023-10-13T03:13:28;12.95;;;6.90;;
28724;SDS011;43472;48.980;9.646;2023-10-13T03:18:34;15.57;;;6.60;;
28724;SDS011;43472;48.980;9.646;2023-10-13T03:23:37;11.15;;;6.13;;
28724;SDS011;43472;48.980;9.646;2023-10-13T03:28:47;13.63;;;6.45;;
28724;SDS011;43472;48.980;9.646;2023-10-13T03:33:53;16.88;;;7.35;;
28724;SDS011;43472;48.980;9.646;2023-10-13T03:39:01;10.35;;;5.63;;
28724;SDS011;43472;48.980;9.646;2023-10-13T03:44:08;17.45;;;7.88;;
28724;SDS011;43472;48.980;9.646;2023-10-13T03:49:18;13.40;;;6.25;;
28724;SDS011;43472;48.980;9.646;2023-10-13T03:54:26;11.65;;;5.78;;
28724;SDS011;43472;48.980;9.646;2023-10-13T03:59:31;13.63;;;5.90;;
28724;SDS011;43472;48.980;9.646;2023-10-13T04:04:36;8.73;;;5.55;;
28724;SDS011;43472;48.980;9.646;2023-10-13T04:09:54;14.82;;;5.93;;
28724;SDS011;43472;48.980;9.646;2023-10-13T04:15:16;22.27;;;6.20;;
28724;SDS011;43472;48.980;9.646;2023-10-13T04:20:24;10.95;;;5.50;;
28724;SDS011;43472;48.980;9.646;2023-10-13T04:25:34;13.80;;;6.65;;
28724;SDS011;43472;48.980;9.646;2023-10-13T04:30:47;32.53;;;10.15;;
28724;SDS011;43472;48.980;9.646;2023-10-13T04:41:18;13.77;;;7.32;;
28724;SDS011;43472;48.980;9.646;2023-10-13T04:46:23;15.30;;;6.88;;
28724;SDS011;43472;48.980;9.646;2023-10-13T04:52:00;24.63;;;9.30;;
28724;SDS011;43472;48.980;9.646;2023-10-13T04:57:19;14.77;;;7.30;;
28724;SDS011;43472;48.980;9.646;2023-10-13T05:02:32;13.75;;;7.95;;
28724;SDS011;43472;48.980;9.646;2023-10-13T05:07:39;16.65;;;7.10;;
28724;SDS011;43472;48.980;9.646;2023-10-13T05:13:00;8.43;;;5.45;;
28724;SDS011;43472;48.980;9.646;2023-10-13T05:18:21;15.37;;;6.60;;
28724;SDS011;43472;48.980;9.646;2023-10-13T05:23:43;13.82;;;6.00;;
28724;SDS011;43472;48.980;9.646;2023-10-13T05:29:04;10.55;;;5.57;;
28724;SDS011;43472;48.980;9.646;2023-10-13T05:34:29;10.75;;;5.63;;
28724;SDS011;43472;48.980;9.646;2023-10-13T05:40:10;22.08;;;7.20;;
28724;SDS011;43472;48.980;9.646;2023-10-13T05:45:31;14.38;;;5.95;;
28724;SDS011;43472;48.980;9.646;2023-10-13T05:51:00;11.90;;;7.15;;
28724;SDS011;43472;48.980;9.646;2023-10-13T05:56:21;15.25;;;6.28;;
28724;SDS011;43472;48.980;9.646;2023-10-13T06:01:42;14.32;;;6.68;;
28724;SDS011;43472;48.980;9.646;2023-10-13T06:07:02;14.40;;;6.57;;
28724;SDS011;43472;48.980;9.646;2023-10-13T06:12:29;10.07;;;6.10;;
28724;SDS011;43472;48.980;9.646;2023-10-13T06:17:54;15.40;;;7.72;;
28724;SDS011;43472;48.980;9.646;2023-10-13T06:23:19;11.07;;;6.22;;
28724;SDS011;43472;48.980;9.646;2023-10-13T06:28:40;9.25;;;5.97;;
28724;SDS011;43472;48.980;9.646;2023-10-13T06:33:42;12.43;;;6.55;;
28724;SDS011;43472;48.980;9.646;2023-10-13T06:38:47;13.15;;;6.13;;
28724;SDS011;43472;48.980;9.646;2023-10-13T06:43:57;17.10;;;7.18;;
28724;SDS011;43472;48.980;9.646;2023-10-13T06:49:02;13.93;;;6.28;;
28724;SDS011;43472;48.980;9.646;2023-10-13T06:54:05;15.63;;;6.53;;
28724;SDS011;43472;48.980;9.646;2023-10-13T06:59:13;14.55;;;6.80;;
28724;SDS011;43472;48.980;9.646;2023-10-13T07:04:15;14.68;;;7.35;;
28724;SDS011;43472;48.980;9.646;2023-10-13T07:09:18;14.68;;;6.88;;
28724;SDS011;43472;48.980;9.646;2023-10-13T07:14:41;12.57;;;7.82;;
28724;SDS011;43472;48.980;9.646;2023-10-13T07:19:53;13.63;;;6.95;;
28724;SDS011;43472;48.980;9.646;2023-10-13T07:24:58;11.60;;;6.55;;
28724;SDS011;43472;48.980;9.646;2023-10-13T07:30:00;13.88;;;7.53;;
28724;SDS011;43472;48.980;9.646;2023-10-13T07:35:16;22.60;;;9.25;;
28724;SDS011;43472;48.980;9.646;2023-10-13T07:40:25;18.23;;;8.60;;
28724;SDS011;43472;48.980;9.646;2023-10-13T07:45:28;23.42;;;9.68;;
28724;SDS011;43472;48.980;9.646;2023-10-13T07:55:41;15.85;;;8.50;;
28724;SDS011;43472;48.980;9.646;2023-10-13T08:00:43;21.05;;;8.65;;
28724;SDS011;43472;48.980;9.646;2023-10-13T08:05:52;16.08;;;7.72;;
28724;SDS011;43472;48.980;9.646;2023-10-13T08:11:08;14.45;;;8.23;;
28724;SDS011;43472;48.980;9.646;2023-10-13T08:16:29;18.10;;;8.02;;
28724;SDS011;43472;48.980;9.646;2023-10-13T08:21:52;20.17;;;7.78;;
28724;SDS011;43472;48.980;9.646;2023-10-13T08:27:17;18.13;;;7.38;;
28724;SDS011;43472;48.980;9.646;2023-10-13T08:32:37;13.83;;;7.17;;
28724;SDS011;43472;48.980;9.646;2023-10-13T08:37:55;14.07;;;7.10;;
28724;SDS011;43472;48.980;9.646;2023-10-13T08:43:15;20.27;;;6.60;;
28724;SDS011;43472;48.980;9.646;2023-10-13T08:48:20;17.35;;;4.25;;
28724;SDS011;43472;48.980;9.646;2023-10-13T08:53:28;14.50;;;3.72;;
28724;SDS011;43472;48.980;9.646;2023-10-13T08:58:35;13.05;;;4.20;;
28724;SDS011;43472;48.980;9.646;2023-10-13T09:03:54;8.30;;;3.30;;
28724;SDS011;43472;48.980;9.646;2023-10-13T09:09:18;9.20;;;3.33;;
28724;SDS011;43472;48.980;9.646;2023-10-13T09:14:39;10.40;;;3.08;;
28724;SDS011;43472;48.980;9.646;2023-10-13T09:19:49;9.23;;;2.80;;
28724;SDS011;43472;48.980;9.646;2023-10-13T09:24:58;12.90;;;2.97;;
28724;SDS011;43472;48.980;9.646;2023-10-13T09:30:04;12.75;;;3.13;;
28724;SDS011;43472;48.980;9.646;2023-10-13T09:35:24;7.00;;;3.08;;
28724;SDS011;43472;48.980;9.646;2023-10-13T09:40:29;8.68;;;2.83;;
28724;SDS011;43472;48.980;9.646;2023-10-13T09:45:35;15.27;;;3.42;;
28724;SDS011;43472;48.980;9.646;2023-10-13T09:50:46;10.45;;;2.47;;
28724;SDS011;43472;48.980;9.646;2023-10-13T09:55:55;11.55;;;3.05;;
28724;SDS011;43472;48.980;9.646;2023-10-13T10:01:16;5.90;;;2.38;;
28724;SDS011;43472;48.980;9.646;2023-10-13T10:06:33;8.57;;;2.55;;
28724;SDS011;43472;48.980;9.646;2023-10-13T10:17:07;6.93;;;2.85;;
28724;SDS011;43472;48.980;9.646;2023-10-13T10:22:13;12.68;;;2.35;;
28724;SDS011;43472;48.980;9.646;2023-10-13T10:27:28;12.88;;;2.97;;
28724;SDS011;43472;48.980;9.646;2023-10-13T10:32:34;17.10;;;3.10;;
28724;SDS011;43472;48.980;9.646;2023-10-13T10:37:37;6.72;;;2.47;;
28724;SDS011;43472;48.980;9.646;2023-10-13T10:42:51;3.83;;;2.35;;
28724;SDS011;43472;48.980;9.646;2023-10-13T10:47:56;12.95;;;3.10;;
28724;SDS011;43472;48.980;9.646;2023-10-13T10:53:01;14.68;;;2.35;;
28724;SDS011;43472;48.980;9.646;2023-10-13T10:58:10;13.55;;;2.47;;
28724;SDS011;43472;48.980;9.646;2023-10-13T11:03:30;7.67;;;2.70;;
28724;SDS011;43472;48.980;9.646;2023-10-13T11:08:33;14.68;;;3.03;;
28724;SDS011;43472;48.980;9.646;2023-10-13T11:13:42;9.18;;;3.00;;
28724;SDS011;43472;48.980;9.646;2023-10-13T11:19:03;7.03;;;2.70;;
28724;SDS011;43472;48.980;9.646;2023-10-13T11:24:09;7.00;;;2.55;;
28724;SDS011;43472;48.980;9.646;2023-10-13T11:29:11;8.70;;;2.20;;
28724;SDS011;43472;48.980;9.646;2023-10-13T11:34:13;10.45;;;2.30;;
28724;SDS011;43472;48.980;9.646;2023-10-13T11:39:18;11.40;;;2.53;;
28724;SDS011;43472;48.980;9.646;2023-10-13T11:44:26;11.15;;;2.67;;
28724;SDS011;43472;48.980;9.646;2023-10-13T11:49:36;10.02;;;2.45;;
28724;SDS011;43472;48.980;9.646;2023-10-13T11:54:38;9.13;;;2.75;;
28724;SDS011;43472;48.980;9.646;2023-10-13T11:59:43;8.25;;;2.50;;
28724;SDS011;43472;48.980;9.646;2023-10-13T12:04:54;17.17;;;3.03;;
28724;SDS011;43472;48.980;9.646;2023-10-13T12:09:58;10.18;;;2.22;;
28724;SDS011;43472;48.980;9.646;2023-10-13T12:15:03;15.07;;;2.72;;
28724;SDS011;43472;48.980;9.646;2023-10-13T12:20:11;8.85;;;2.28;;
28724;SDS011;43472;48.980;9.646;2023-10-13T12:25:20;12.05;;;2.20;;
28724;SDS011;43472;48.980;9.646;2023-10-13T12:30:35;7.28;;;2.10;;
28724;SDS011;43472;48.980;9.646;2023-10-13T12:35:40;9.30;;;2.83;;
28724;SDS011;43472;48.980;9.646;2023-10-13T12:41:06;25.05;;;3.65;;
28724;SDS011;43472;48.980;9.646;2023-10-13T12:46:36;4.57;;;2.30;;
28724;SDS011;43472;48.980;9.646;2023-10-13T12:51:58;8.02;;;2.50;;
28724;SDS011;43472;48.980;9.646;2023-10-13T12:57:04;13.25;;;2.53;;
28724;SDS011;43472;48.980;9.646;2023-10-13T13:02:10;10.30;;;2.90;;
28724;SDS011;43472;48.980;9.646;2023-10-13T13:07:18;6.65;;;2.60;;
28724;SDS011;43472;48.980;9.646;2023-10-13T13:12:19;9.65;;;2.30;;
28724;SDS011;43472;48.980;9.646;2023-10-13T13:17:22;8.30;;;2.28;;
28724;SDS011;43472;48.980;9.646;2023-10-13T13:22:24;8.73;;;2.63;;
28724;SDS011;43472;48.980;9.646;2023-10-13T13:27:26;4.55;;;2.50;;
28724;SDS011;43472;48.980;9.646;2023-10-13T13:32:29;10.05;;;2.50;;
28724;SDS011;43472;48.980;9.646;2023-10-13T13:37:31;9.52;;;2.55;;
28724;SDS011;43472;48.980;9.646;2023-10-13T13:42:33;8.50;;;2.53;;
28724;SDS011;43472;48.980;9.646;2023-10-13T13:47:38;13.82;;;2.67;;
28724;SDS011;43472;48.980;9.646;2023-10-13T13:52:40;13.88;;;2.47;;
28724;SDS011;43472;48.980;9.646;2023-10-13T13:57:47;9.55;;;2.78;;
28724;SDS011;43472;48.980;9.646;2023-10-13T14:02:51;12.38;;;2.65;;
28724;SDS011;43472;48.980;9.646;2023-10-13T14:07:54;13.93;;;2.53;;
28724;SDS011;43472;48.980;9.646;2023-10-13T14:12:57;8.38;;;2.15;;
28724;SDS011;43472;48.980;9.646;2023-10-13T14:18:08;10.63;;;2.58;;
28724;SDS011;43472;48.980;9.646;2023-10-13T14:23:19;10.95;;;2.67;;
28724;SDS011;43472;48.980;9.646;2023-10-13T14:28:24;9.75;;;2.03;;
28724;SDS011;43472;48.980;9.646;2023-10-13T14:33:34;6.93;;;2.85;;
28724;SDS011;43472;48.980;9.646;2023-10-13T14:38:38;8.02;;;2.42;;
28724;SDS011;43472;48.980;9.646;2023-10-13T14:43:45;7.70;;;2.60;;
28724;SDS011;43472;48.980;9.646;2023-10-13T14:48:52;9.38;;;2.70;;
28724;SDS011;43472;48.980;9.646;2023-10-13T14:53:54;5.97;;;2.17;;
28724;SDS011;43472;48.980;9.646;2023-10-13T14:59:01;5.63;;;1.85;;
28724;SDS011;43472;48.980;9.646;2023-10-13T15:04:06;8.45;;;2.25;;
28724;SDS011;43472;48.980;9.646;2023-10-13T15:09:08;5.20;;;2.35;;
28724;SDS011;43472;48.980;9.646;2023-10-13T15:14:12;7.35;;;2.15;;
28724;SDS011;43472;48.980;9.646;2023-10-13T15:19:14;8.43;;;2.38;;
28724;SDS011;43472;48.980;9.646;2023-10-13T15:24:18;5.90;;;2.10;;
28724;SDS011;43472;48.980;9.646;2023-10-13T15:29:27;8.43;;;2.15;;
28724;SDS011;43472;48.980;9.646;2023-10-13T15:34:39;4.60;;;2.15;;
28724;SDS011;43472;48.980;9.646;2023-10-13T15:39:41;13.13;;;2.35;;
28724;SDS011;43472;48.980;9.646;2023-10-13T15:44:45;10.27;;;2.33;;
28724;SDS011;43472;48.980;9.646;2023-10-13T15:49:47;5.85;;;2.25;;
28724;SDS011;43472;48.980;9.646;2023-10-13T15:54:50;6.80;;;2.40;;
28724;SDS011;43472;48.980;9.646;2023-10-13T15:59:52;5.40;;;2.17;;
28724;SDS011;43472;48.980;9.646;2023-10-13T16:05:02;9.40;;;2.73;;
28724;SDS011;43472;48.980;9.646;2023-10-13T16:10:08;7.53;;;2.33;;
28724;SDS011;43472;48.980;9.646;2023-10-13T16:15:12;5.70;;;2.13;;
28724;SDS011;43472;48.980;9.646;2023-10-13T16:20:15;7.53;;;2.80;;
28724;SDS011;43472;48.980;9.646;2023-10-13T16:25:17;8.82;;;2.90;;
28724;SDS011;43472;48.980;9.646;2023-10-13T16:30:22;4.35;;;2.10;;
28724;SDS011;43472;48.980;9.646;2023-10-13T16:35:24;7.05;;;2.15;;
28724;SDS011;43472;48.980;9.646;2023-10-13T16:40:26;6.10;;;3.40;;
28724;SDS011;43472;48.980;9.646;2023-10-13T16:45:29;9.98;;;3.50;;
28724;SDS011;43472;48.980;9.646;2023-10-13T16:50:33;9.98;;;3.10;;
28724;SDS011;43472;48.980;9.646;2023-10-13T16:55:39;7.63;;;2.60;;
28724;SDS011;43472;48.980;9.646;2023-10-13T17:00:45;5.65;;;1.83;;
28724;SDS011;43472;48.980;9.646;2023-10-13T17:05:53;7.70;;;2.10;;
28724;SDS011;43472;48.980;9.646;2023-10-13T17:11:07;9.65;;;2.15;;
28724;SDS011;43472;48.980;9.646;2023-10-13T17:16:15;8.55;;;3.08;;
28724;SDS011;43472;48.980;9.646;2023-10-13T17:21:20;6.47;;;2.10;;
28724;SDS011;43472;48.980;9.646;2023-10-13T17:26:26;11.15;;;2.85;;
28724;SDS011;43472;48.980;9.646;2023-10-13T17:31:28;14.40;;;2.17;;
28724;SDS011;43472;48.980;9.646;2023-10-13T17:36:34;8.45;;;2.50;;
28724;SDS011;43472;48.980;9.646;2023-10-13T17:41:38;18.30;;;4.95;;
28724;SDS011;43472;48.980;9.646;2023-10-13T17:46:40;7.65;;;2.25;;
28724;SDS011;43472;48.980;9.646;2023-10-13T17:51:42;7.30;;;2.50;;
28724;SDS011;43472;48.980;9.646;2023-10-13T17:56:44;9.98;;;3.05;;
28724;SDS011;43472;48.980;9.646;2023-10-13T18:01:47;4.80;;;2.58;;
28724;SDS011;43472;48.980;9.646;2023-10-13T18:06:52;9.00;;;3.28;;
28724;SDS011;43472;48.980;9.646;2023-10-13T18:11:54;8.18;;;4.15;;
28724;SDS011;43472;48.980;9.646;2023-10-13T18:16:58;10.60;;;2.97;;
28724;SDS011;43472;48.980;9.646;2023-10-13T18:22:00;9.75;;;2.60;;
28724;SDS011;43472;48.980;9.646;2023-10-13T18:27:05;7.75;;;2.60;;
28724;SDS011;43472;48.980;9.646;2023-10-13T18:32:07;5.80;;;2.72;;
28724;SDS011;43472;48.980;9.646;2023-10-13T18:37:10;9.32;;;3.15;;
28724;SDS011;43472;48.980;9.646;2023-10-13T18:42:11;8.65;;;3.70;;
28724;SDS011;43472;48.980;9.646;2023-10-13T18:47:14;22.88;;;9.35;;
28724;SDS011;43472;48.980;9.646;2023-10-13T18:52:19;19.17;;;7.40;;
28724;SDS011;43472;48.980;9.646;2023-10-13T18:57:22;21.73;;;7.85;;
28724;SDS011;43472;48.980;9.646;2023-10-13T19:02:24;19.15;;;6.55;;
28724;SDS011;43472;48.980;9.646;2023-10-13T19:07:28;12.93;;;5.78;;
28724;SDS011;43472;48.980;9.646;2023-10-13T19:12:32;9.85;;;4.85;;
28724;SDS011;43472;48.980;9.646;2023-10-13T19:17:36;13.35;;;7.43;;
28724;SDS011;43472;48.980;9.646;2023-10-13T19:22:39;13.75;;;6.28;;
28724;SDS011;43472;48.980;9.646;2023-10-13T19:27:42;12.68;;;4.97;;
28724;SDS011;43472;48.980;9.646;2023-10-13T19:32:46;16.30;;;6.70;;
28724;SDS011;43472;48.980;9.646;2023-10-13T19:37:49;18.10;;;6.82;;
28724;SDS011;43472;48.980;9.646;2023-10-13T19:42:51;20.40;;;6.20;;
28724;SDS011;43472;48.980;9.646;2023-10-13T19:47:53;28.63;;;11.23;;
28724;SDS011;43472;48.980;9.646;2023-10-13T19:52:56;18.73;;;7.05;;
28724;SDS011;43472;48.980;9.646;2023-10-13T19:58:01;16.52;;;6.63;;
28724;SDS011;43472;48.980;9.646;2023-10-13T20:03:03;11.70;;;5.22;;
28724;SDS011;43472;48.980;9.646;2023-10-13T20:08:10;5.60;;;2.97;;
28724;SDS011;43472;48.980;9.646;2023-10-13T20:13:13;31.83;;;17.00;;
28724;SDS011;43472;48.980;9.646;2023-10-13T20:18:16;13.05;;;5.03;;
28724;SDS011;43472;48.980;9.646;2023-10-13T20:23:20;15.00;;;6.18;;
28724;SDS011;43472;48.980;9.646;2023-10-13T20:28:22;14.57;;;6.15;;
28724;SDS011;43472;48.980;9.646;2023-10-13T20:33:24;14.68;;;5.68;;
28724;SDS011;43472;48.980;9.646;2023-10-13T20:38:29;12.23;;;4.43;;
28724;SDS011;43472;48.980;9.646;2023-10-13T20:43:31;13.20;;;4.65;;
28724;SDS011;43472;48.980;9.646;2023-10-13T20:48:33;17.33;;;7.63;;
28724;SDS011;43472;48.980;9.646;2023-10-13T20:53:36;16.67;;;5.68;;
28724;SDS011;43472;48.980;9.646;2023-10-13T20:58:39;15.65;;;5.97;;
28724;SDS011;43472;48.980;9.646;2023-10-13T21:03:45;17.88;;;6.38;;
28724;SDS011;43472;48.980;9.646;2023-10-13T21:08:50;23.75;;;8.20;;
28724;SDS011;43472;48.980;9.646;2023-10-13T21:13:52;7.70;;;3.38;;
28724;SDS011;43472;48.980;9.646;2023-10-13T21:18:54;11.30;;;2.92;;
28724;SDS011;43472;48.980;9.646;2023-10-13T21:23:56;6.22;;;2.70;;
28724;SDS011;43472;48.980;9.646;2023-10-13T21:28:58;11.05;;;3.53;;
28724;SDS011;43472;48.980;9.646;2023-10-13T21:34:00;17.80;;;7.13;;
28724;SDS011;43472;48.980;9.646;2023-10-13T21:39:07;12.18;;;4.05;;
28724;SDS011;43472;48.980;9.646;2023-10-13T21:44:12;11.60;;;3.53;;
28724;SDS011;43472;48.980;9.646;2023-10-13T21:49:15;10.85;;;4.63;;
28724;SDS011;43472;48.980;9.646;2023-10-13T21:54:20;5.45;;;2.15;;
28724;SDS011;43472;48.980;9.646;2023-10-13T21:59:22;5.32;;;2.22;;
28724;SDS011;43472;48.980;9.646;2023-10-13T22:04:24;7.53;;;2.65;;
28724;SDS011;43472;48.980;9.646;2023-10-13T22:09:32;6.25;;;1.80;;
28724;SDS011;43472;48.980;9.646;2023-10-13T22:14:38;6.95;;;2.45;;
28724;SDS011;43472;48.980;9.646;2023-10-13T22:19:41;11.05;;;2.35;;
28724;SDS011;43472;48.980;9.646;2023-10-13T22:24:43;6.32;;;2.25;;
28724;SDS011;43472;48.980;9.646;2023-10-13T22:29:45;7.32;;;2.20;;
28724;SDS011;43472;48.980;9.646;2023-10-13T22:34:48;6.15;;;1.70;;
28724;SDS011;43472;48.980;9.646;2023-10-13T22:39:50;5.65;;;2.13;;
28724;SDS011;43472;48.980;9.646;2023-10-13T22:44:53;11.80;;;2.38;;
28724;SDS011;43472;48.980;9.646;2023-10-13T22:49:55;9.52;;;1.90;;
28724;SDS011;43472;48.980;9.646;2023-10-13T22:54:57;6.82;;;2.28;;
28724;SDS011;43472;48.980;9.646;2023-10-13T23:00:08;9.10;;;1.90;;
28724;SDS011;43472;48.980;9.646;2023-10-13T23:05:11;14.20;;;2.78;;
28724;SDS011;43472;48.980;9.646;2023-10-13T23:10:24;3.40;;;1.88;;
28724;SDS011;43472;48.980;9.646;2023-10-13T23:20:38;8.30;;;2.22;;
28724;SDS011;43472;48.980;9.646;2023-10-13T23:25:40;6.18;;;2.25;;
28724;SDS011;43472;48.980;9.646;2023-10-13T23:30:43;8.88;;;2.22;;
28724;SDS011;43472;48.980;9.646;2023-10-13T23:35:46;7.93;;;2.33;;
28724;SDS011;43472;48.980;9.646;2023-10-13T23:40:48;6.97;;;1.90;;
28724;SDS011;43472;48.980;9.646;2023-10-13T23:45:51;6.13;;;2.30;;
28724;SDS011;43472;48.980;9.646;2023-10-13T23:50:58;14.48;;;2.70;;
28724;SDS011;43472;48.980;9.646;2023-10-13T23:56:02;6.13;;;2.08;;
